createdAt,value
2018-03-21T00:01:11.965Z,63.50
2018-03-21T00:03:39.717Z,63.87
2018-03-21T00:06:07.269Z,68.27
2018-03-21T00:08:34.819Z,69.10
2018-03-21T00:11:02.578Z,69.00
2018-03-21T00:13:30.122Z,66.77
2018-03-21T00:15:57.690Z,63.77
2018-03-21T00:18:25.415Z,57.20
2018-03-21T00:20:52.967Z,56.20
2018-03-21T00:23:20.511Z,55.70
2018-03-21T00:25:48.106Z,54.70
2018-03-21T00:28:15.654Z,54.87
2018-03-21T00:30:43.199Z,54.17
2018-03-21T00:33:10.895Z,53.03
2018-03-21T00:35:38.447Z,55.37
2018-03-21T00:38:06.005Z,55.00
2018-03-21T00:40:33.581Z,50.93
2018-03-21T00:43:01.134Z,52.53
2018-03-21T00:45:28.698Z,50.70
2018-03-21T00:47:56.279Z,49.27
2018-03-21T00:50:23.827Z,51.43
2018-03-21T00:52:51.380Z,56.73
2018-03-21T00:55:19.251Z,65.60
2018-03-21T00:57:46.814Z,69.33
2018-03-21T01:00:14.386Z,74.97
2018-03-21T01:02:41.992Z,77.00
2018-03-21T01:05:09.553Z,91.40
2018-03-21T01:07:37.110Z,92.17
2018-03-21T01:10:04.804Z,84.50
2018-03-21T01:12:32.351Z,79.40
2018-03-21T01:14:59.899Z,82.47
2018-03-21T01:17:27.481Z,81.27
2018-03-21T01:19:55.032Z,78.83
2018-03-21T01:22:22.598Z,82.27
2018-03-21T01:24:50.322Z,78.77
2018-03-21T01:27:17.878Z,87.67
2018-03-21T01:29:45.438Z,81.60
2018-03-21T01:32:13.036Z,77.67
2018-03-21T01:34:40.588Z,80.13
2018-03-21T01:37:08.166Z,83.00
2018-03-21T01:39:35.880Z,86.57
2018-03-21T01:42:03.450Z,84.20
2018-03-21T01:44:31.007Z,82.53
2018-03-21T01:46:58.662Z,79.37
2018-03-21T01:49:26.235Z,76.80
2018-03-21T01:51:53.785Z,71.43
2018-03-21T01:54:21.522Z,64.10
2018-03-21T01:56:49.078Z,60.63
2018-03-21T01:59:16.643Z,60.67
2018-03-21T02:01:44.205Z,63.80
2018-03-21T02:04:11.767Z,62.40
2018-03-21T02:06:39.495Z,63.10
2018-03-21T02:09:07.058Z,67.10
2018-03-21T02:11:34.634Z,74.30
2018-03-21T02:14:02.220Z,71.80
2018-03-21T02:16:29.767Z,54.10
2018-03-21T02:18:57.309Z,49.13
2018-03-21T02:21:25.047Z,46.90
2018-03-21T02:23:52.598Z,52.63
2018-03-21T02:26:20.141Z,46.90
2018-03-21T02:28:47.874Z,43.27
2018-03-21T02:31:15.422Z,42.97
2018-03-21T02:33:42.975Z,43.17
2018-03-21T02:36:10.666Z,43.43
2018-03-21T02:38:38.208Z,40.93
2018-03-21T02:41:05.770Z,41.20
2018-03-21T02:43:33.377Z,43.03
2018-03-21T02:46:00.939Z,40.50
2018-03-21T02:48:28.487Z,41.43
2018-03-21T02:50:56.070Z,35.20
2018-03-21T02:53:23.624Z,36.60
2018-03-21T02:55:51.163Z,31.80
2018-03-21T02:58:18.766Z,32.03
2018-03-21T03:00:46.345Z,28.27
2018-03-21T03:03:13.903Z,29.73
2018-03-21T03:05:41.633Z,27.00
2018-03-21T03:08:09.199Z,28.17
2018-03-21T03:10:36.755Z,28.83
2018-03-21T03:13:04.478Z,31.97
2018-03-21T03:15:32.030Z,30.77
2018-03-21T03:17:59.573Z,27.77
2018-03-21T03:20:27.178Z,25.87
2018-03-21T03:22:54.721Z,23.17
2018-03-21T03:25:22.266Z,23.77
2018-03-21T03:27:49.845Z,23.80
2018-03-21T03:30:17.402Z,21.53
2018-03-21T03:32:44.958Z,20.20
2018-03-21T03:35:12.830Z,20.00
2018-03-21T03:37:40.379Z,20.93
2018-03-21T03:40:07.935Z,22.37
2018-03-21T03:42:35.654Z,22.87
2018-03-21T03:45:03.222Z,21.00
2018-03-21T03:47:30.765Z,21.50
2018-03-21T03:49:58.343Z,21.53
2018-03-21T03:52:25.907Z,21.33
2018-03-21T03:54:53.452Z,22.20
2018-03-21T03:57:21.187Z,21.50
2018-03-21T03:59:48.751Z,20.50
2018-03-21T04:02:16.342Z,19.67
2018-03-21T04:04:43.934Z,19.80
2018-03-21T04:07:11.478Z,20.97
2018-03-21T04:09:39.047Z,21.33
2018-03-21T04:12:06.770Z,18.83
2018-03-21T04:14:34.348Z,21.20
2018-03-21T04:17:01.892Z,21.40
2018-03-21T04:19:29.575Z,21.40
2018-03-21T04:21:57.132Z,21.17
2018-03-21T04:24:24.700Z,21.77
2018-03-21T04:26:52.290Z,23.50
2018-03-21T04:29:19.850Z,23.43
2018-03-21T04:31:47.414Z,29.97
2018-03-21T04:34:15.163Z,33.10
2018-03-21T04:36:42.712Z,32.70
2018-03-21T04:39:10.262Z,34.43
2018-03-21T04:41:38.022Z,32.20
2018-03-21T04:44:05.569Z,31.80
2018-03-21T04:46:33.143Z,32.20
2018-03-21T04:49:00.894Z,30.73
2018-03-21T04:51:28.472Z,31.10
2018-03-21T04:53:56.033Z,29.30
2018-03-21T04:56:23.621Z,27.80
2018-03-21T04:58:51.199Z,25.63
2018-03-21T05:01:18.757Z,25.70
2018-03-21T05:03:46.354Z,24.97
2018-03-21T05:06:13.924Z,24.13
2018-03-21T05:08:41.469Z,24.83
2018-03-21T05:11:09.176Z,22.50
2018-03-21T05:13:36.721Z,22.43
2018-03-21T05:16:04.274Z,20.80
2018-03-21T05:18:32.006Z,25.97
2018-03-21T05:20:59.553Z,31.43
2018-03-21T05:23:28.006Z,33.90
2018-03-21T05:25:55.595Z,33.60
2018-03-21T05:28:23.146Z,34.87
2018-03-21T05:30:50.954Z,31.33
2018-03-21T05:33:18.647Z,32.77
2018-03-21T05:35:46.198Z,33.00
2018-03-21T05:38:13.760Z,32.93
2018-03-21T05:40:41.332Z,33.97
2018-03-21T05:43:08.885Z,43.97
2018-03-21T05:45:36.440Z,34.67
2018-03-21T05:48:04.197Z,31.83
2018-03-21T05:50:31.755Z,30.73
2018-03-21T05:52:59.297Z,33.43
2018-03-21T05:55:27.031Z,31.47
2018-03-21T05:57:54.587Z,29.37
2018-03-21T06:00:22.129Z,34.33
2018-03-21T06:02:49.718Z,32.27
2018-03-21T06:05:17.306Z,30.30
2018-03-21T06:07:44.860Z,31.13
2018-03-21T06:10:12.735Z,28.67
2018-03-21T06:12:40.291Z,29.47
2018-03-21T06:15:07.868Z,27.57
2018-03-21T06:17:35.466Z,28.73
2018-03-21T06:20:03.049Z,27.93
2018-03-21T06:22:30.644Z,28.23
2018-03-21T06:24:58.254Z,28.23
2018-03-21T06:27:25.803Z,29.70
2018-03-21T06:29:53.365Z,29.43
2018-03-21T06:32:20.943Z,28.80
2018-03-21T06:34:48.493Z,33.00
2018-03-21T06:37:16.043Z,33.40
2018-03-21T06:39:43.617Z,33.33
2018-03-21T06:42:11.170Z,32.83
2018-03-21T06:44:38.742Z,31.50
2018-03-21T06:47:06.444Z,36.93
2018-03-21T06:49:33.995Z,36.73
2018-03-21T06:52:01.548Z,33.07
2018-03-21T06:54:29.226Z,36.37
2018-03-21T06:56:56.788Z,34.17
2018-03-21T06:59:24.342Z,35.40
2018-03-21T07:01:51.889Z,36.77
2018-03-21T07:04:19.438Z,40.20
2018-03-21T07:06:47.169Z,42.83
2018-03-21T07:09:14.739Z,42.60
2018-03-21T07:11:42.323Z,42.50
2018-03-21T07:14:21.593Z,40.17
2018-03-21T07:16:49.187Z,41.00
2018-03-21T07:19:16.747Z,39.33
2018-03-21T07:21:44.371Z,39.77
2018-03-21T07:24:11.929Z,40.53
2018-03-21T07:26:39.502Z,40.83
2018-03-21T07:29:07.233Z,39.67
2018-03-21T07:31:34.807Z,40.27
2018-03-21T07:34:02.367Z,38.83
2018-03-21T07:36:30.045Z,37.70
2018-03-21T07:38:57.594Z,36.60
2018-03-21T07:41:25.140Z,35.97
2018-03-21T07:43:52.756Z,35.50
2018-03-21T07:46:20.311Z,34.47
2018-03-21T07:48:47.890Z,37.10
2018-03-21T07:51:15.782Z,37.03
2018-03-21T07:53:43.368Z,45.23
2018-03-21T07:56:10.920Z,35.23
2018-03-21T07:58:38.509Z,35.47
2018-03-21T08:01:06.068Z,35.23
2018-03-21T08:03:33.637Z,36.70
2018-03-21T08:06:01.237Z,35.13
2018-03-21T08:08:28.792Z,31.63
2018-03-21T08:10:56.339Z,29.47
2018-03-21T08:13:24.039Z,29.03
2018-03-21T08:15:56.948Z,25.73
2018-03-21T08:18:24.498Z,25.43
2018-03-21T08:20:52.230Z,24.00
2018-03-21T08:23:19.785Z,22.20
2018-03-21T08:25:47.341Z,26.53
2018-03-21T08:28:15.074Z,25.20
2018-03-21T08:30:42.640Z,26.93
2018-03-21T08:33:10.194Z,25.00
2018-03-21T08:35:38.645Z,25.43
2018-03-21T08:38:06.204Z,24.13
2018-03-21T08:40:33.767Z,23.87
2018-03-21T08:43:01.365Z,24.80
2018-03-21T08:45:28.918Z,24.77
2018-03-21T08:47:56.459Z,24.47
2018-03-21T08:50:24.037Z,25.93
2018-03-21T08:52:51.627Z,24.20
2018-03-21T08:55:19.179Z,27.13
2018-03-21T08:57:46.765Z,28.33
2018-03-21T09:00:14.319Z,29.70
2018-03-21T09:02:41.882Z,28.13
2018-03-21T09:05:09.561Z,27.27
2018-03-21T09:07:37.117Z,22.13
2018-03-21T09:10:04.720Z,24.07
2018-03-21T09:12:32.296Z,21.50
2018-03-21T09:14:59.845Z,21.50
2018-03-21T09:17:27.388Z,24.80
2018-03-21T09:19:54.979Z,25.07
2018-03-21T09:22:22.562Z,25.60
2018-03-21T09:24:50.130Z,25.70
2018-03-21T09:27:17.858Z,26.50
2018-03-21T09:29:45.418Z,26.07
2018-03-21T09:32:12.971Z,27.40
2018-03-21T09:34:40.554Z,26.53
2018-03-21T09:37:08.103Z,24.57
2018-03-21T09:39:35.668Z,26.60
2018-03-21T09:42:03.267Z,27.80
2018-03-21T09:44:30.830Z,24.73
2018-03-21T09:46:58.411Z,24.73
2018-03-21T09:49:26.000Z,24.10
2018-03-21T09:51:53.559Z,23.43
2018-03-21T09:54:21.101Z,43.67
2018-03-21T09:56:48.835Z,22.17
2018-03-21T09:59:16.393Z,30.77
2018-03-21T10:01:43.942Z,21.40
2018-03-21T10:04:11.754Z,28.03
2018-03-21T10:06:39.306Z,25.40
2018-03-21T10:09:06.911Z,22.13
2018-03-21T10:11:34.610Z,23.00
2018-03-21T10:14:02.164Z,23.23
2018-03-21T10:16:29.722Z,22.57
2018-03-21T10:18:57.307Z,17.10
2018-03-21T10:21:24.875Z,17.60
2018-03-21T10:23:52.438Z,20.57
2018-03-21T10:26:20.046Z,19.20
2018-03-21T10:28:47.613Z,20.70
2018-03-21T10:31:16.568Z,20.57
2018-03-21T10:33:44.294Z,20.63
2018-03-21T10:36:11.875Z,18.90
2018-03-21T10:38:39.451Z,20.57
2018-03-21T10:41:07.362Z,19.63
2018-03-21T10:43:34.951Z,21.97
2018-03-21T10:46:02.532Z,22.20
2018-03-21T10:48:30.124Z,24.77
2018-03-21T10:50:57.713Z,23.53
2018-03-21T10:53:25.314Z,23.43
2018-03-21T10:55:52.919Z,23.27
2018-03-21T10:58:20.476Z,22.63
2018-03-21T11:00:48.038Z,20.67
2018-03-21T11:03:15.930Z,19.53
2018-03-21T11:05:43.492Z,21.60
2018-03-21T11:08:11.075Z,23.10
2018-03-21T11:10:39.371Z,27.03
2018-03-21T11:13:06.926Z,28.53
2018-03-21T11:15:34.512Z,23.83
2018-03-21T11:18:02.205Z,24.77
2018-03-21T11:20:29.764Z,21.03
2018-03-21T11:22:57.323Z,20.00
2018-03-21T11:25:24.923Z,21.50
2018-03-21T11:27:52.482Z,21.90
2018-03-21T11:30:20.037Z,18.23
2018-03-21T11:32:47.831Z,17.57
2018-03-21T11:35:15.406Z,24.27
2018-03-21T11:37:42.976Z,22.23
2018-03-21T11:40:10.916Z,19.93
2018-03-21T11:42:38.468Z,16.17
2018-03-21T11:45:06.021Z,14.37
2018-03-21T11:47:34.273Z,17.17
2018-03-21T11:50:01.818Z,14.40
2018-03-21T11:52:29.369Z,24.03
2018-03-21T11:54:57.099Z,19.13
2018-03-21T11:57:24.656Z,18.03
2018-03-21T11:59:52.231Z,16.87
2018-03-21T12:02:19.805Z,15.23
2018-03-21T12:04:47.362Z,15.13
2018-03-21T12:07:14.942Z,14.93
2018-03-21T12:09:42.491Z,16.30
2018-03-21T12:12:10.040Z,15.67
2018-03-21T12:14:37.962Z,15.17
2018-03-21T12:17:05.539Z,13.60
2018-03-21T12:19:33.111Z,15.30
2018-03-21T12:22:00.702Z,14.87
2018-03-21T12:24:28.268Z,14.00
2018-03-21T12:26:55.831Z,12.97
2018-03-21T12:29:23.421Z,12.17
2018-03-21T12:31:50.983Z,14.30
2018-03-21T12:34:18.533Z,15.67
2018-03-21T12:36:46.132Z,16.00
2018-03-21T12:39:16.645Z,19.90
2018-03-21T12:41:44.231Z,20.60
2018-03-21T12:44:11.994Z,20.47
2018-03-21T12:46:39.550Z,22.13
2018-03-21T12:49:07.099Z,22.10
2018-03-21T12:51:34.699Z,24.40
2018-03-21T12:54:02.265Z,22.50
2018-03-21T12:56:29.828Z,24.47
2018-03-21T12:58:57.437Z,23.33
2018-03-21T13:01:25.012Z,26.97
2018-03-21T13:03:52.579Z,21.83
2018-03-21T13:06:20.203Z,20.17
2018-03-21T13:08:47.754Z,20.70
2018-03-21T13:11:15.313Z,22.80
2018-03-21T13:13:42.915Z,16.80
2018-03-21T13:16:10.555Z,16.73
2018-03-21T13:18:38.250Z,20.60
2018-03-21T13:21:05.788Z,17.63
2018-03-21T13:23:33.344Z,18.80
2018-03-21T13:26:00.949Z,21.53
2018-03-21T13:28:28.519Z,20.03
2018-03-21T13:30:56.787Z,16.70
2018-03-21T13:33:24.333Z,20.27
2018-03-21T13:35:51.886Z,18.87
2018-03-21T13:38:19.566Z,17.87
2018-03-21T13:40:47.122Z,19.20
2018-03-21T13:43:14.685Z,18.73
2018-03-21T13:45:42.426Z,22.20
2018-03-21T13:48:09.998Z,21.50
2018-03-21T13:50:37.598Z,18.20
2018-03-21T13:53:05.331Z,21.00
2018-03-21T13:55:32.873Z,25.00
2018-03-21T13:58:00.422Z,24.07
2018-03-21T14:00:28.008Z,18.17
2018-03-21T14:02:55.565Z,19.70
2018-03-21T14:05:23.172Z,17.33
2018-03-21T14:07:50.861Z,19.10
2018-03-21T14:10:18.424Z,23.63
2018-03-21T14:12:45.980Z,23.63
2018-03-21T14:15:13.564Z,18.63
2018-03-21T14:17:41.112Z,20.83
2018-03-21T14:20:09.321Z,20.80
2018-03-21T14:22:37.076Z,17.53
2018-03-21T14:25:04.686Z,19.83
2018-03-21T14:27:32.239Z,17.20
2018-03-21T14:29:59.877Z,16.67
2018-03-21T14:32:27.426Z,16.60
2018-03-21T14:34:54.998Z,17.63
2018-03-21T14:37:22.577Z,21.60
2018-03-21T14:39:50.135Z,18.40
2018-03-21T14:42:17.691Z,20.30
2018-03-21T14:44:45.291Z,19.20
2018-03-21T14:47:12.846Z,17.53
2018-03-21T14:49:40.421Z,17.13
2018-03-21T14:52:08.128Z,17.23
2018-03-21T14:54:35.679Z,18.70
2018-03-21T14:57:03.261Z,19.83
2018-03-21T14:59:30.987Z,18.33
2018-03-21T15:01:58.595Z,20.50
2018-03-21T15:04:26.150Z,19.13
2018-03-21T15:06:54.097Z,17.37
2018-03-21T15:09:21.658Z,17.57
2018-03-21T15:11:49.222Z,19.10
2018-03-21T15:14:16.806Z,16.60
2018-03-21T15:16:44.350Z,18.40
2018-03-21T15:22:04.114Z,18.73
2018-03-21T15:24:31.663Z,19.53
2018-03-21T15:26:59.219Z,19.63
2018-03-21T15:29:26.853Z,19.83
2018-03-21T15:31:54.394Z,19.80
2018-03-21T15:34:21.939Z,18.80
2018-03-21T15:36:49.647Z,18.50
2018-03-21T15:39:17.206Z,17.33
2018-03-21T15:41:44.755Z,18.13
2018-03-21T15:44:12.515Z,17.50
2018-03-21T15:46:40.061Z,16.77
2018-03-21T15:49:07.609Z,17.67
2018-03-21T15:51:35.201Z,16.37
2018-03-21T15:54:02.754Z,16.43
2018-03-21T15:56:30.323Z,17.10
2018-03-21T15:58:58.067Z,19.33
2018-03-21T16:01:25.626Z,18.13
2018-03-21T16:03:53.191Z,18.40
2018-03-21T16:06:20.786Z,15.97
2018-03-21T16:08:48.365Z,18.00
2018-03-21T16:11:15.923Z,19.50
2018-03-21T16:13:43.524Z,16.27
2018-03-21T16:16:11.098Z,18.17
2018-03-21T16:18:38.662Z,21.33
2018-03-21T16:21:06.592Z,16.97
2018-03-21T16:23:34.178Z,17.80
2018-03-21T16:26:01.730Z,15.80
2018-03-21T16:28:29.324Z,16.07
2018-03-21T16:30:57.023Z,15.10
2018-03-21T16:33:24.717Z,16.17
2018-03-21T16:35:52.267Z,16.47
2018-03-21T16:38:19.837Z,15.33
2018-03-21T16:40:47.739Z,17.13
2018-03-21T16:43:15.333Z,15.17
2018-03-21T16:45:42.887Z,15.13
2018-03-21T16:48:10.490Z,13.13
2018-03-21T16:50:38.076Z,15.77
2018-03-21T16:53:05.629Z,15.23
2018-03-21T16:55:33.202Z,15.73
2018-03-21T16:58:00.751Z,14.33
2018-03-21T17:00:28.320Z,15.13
2018-03-21T17:02:56.014Z,13.70
2018-03-21T17:05:23.575Z,14.07
2018-03-21T17:07:51.127Z,13.63
2018-03-21T17:10:24.628Z,15.37
2018-03-21T17:12:52.196Z,17.13
2018-03-21T17:15:19.748Z,16.10
2018-03-21T17:17:47.610Z,18.07
2018-03-21T17:20:15.824Z,20.77
2018-03-21T17:22:43.369Z,18.80
2018-03-21T17:25:11.017Z,16.63
2018-03-21T17:27:38.563Z,15.30
2018-03-21T17:30:06.161Z,16.27
2018-03-21T17:32:33.898Z,14.73
2018-03-21T17:35:01.448Z,16.70
2018-03-21T17:37:29.046Z,16.33
2018-03-21T17:39:56.643Z,15.27
2018-03-21T17:42:24.197Z,14.37
2018-03-21T17:44:51.748Z,15.57
2018-03-21T17:47:19.333Z,15.70
2018-03-21T17:49:46.894Z,15.57
2018-03-21T17:52:14.472Z,14.57
2018-03-21T17:54:43.023Z,15.23
2018-03-21T17:57:10.606Z,15.53
2018-03-21T17:59:38.163Z,15.43
2018-03-21T18:02:05.751Z,16.27
2018-03-21T18:04:33.302Z,14.53
2018-03-21T18:07:00.865Z,14.03
2018-03-21T18:09:28.779Z,15.63
2018-03-21T18:11:56.355Z,16.40
2018-03-21T18:14:23.928Z,16.63
2018-03-21T18:16:51.815Z,15.37
2018-03-21T18:19:19.385Z,14.60
2018-03-21T18:21:46.934Z,15.70
2018-03-21T18:24:14.671Z,14.70
2018-03-21T18:26:42.234Z,16.03
2018-03-21T18:29:09.802Z,16.67
2018-03-21T18:31:43.867Z,15.37
2018-03-21T18:34:11.438Z,15.73
2018-03-21T18:36:39.895Z,18.67
2018-03-21T18:39:07.624Z,16.97
2018-03-21T18:41:35.212Z,18.37
2018-03-21T18:44:02.782Z,16.70
2018-03-21T18:46:30.483Z,17.43
2018-03-21T18:48:58.066Z,17.07
2018-03-21T18:51:25.632Z,16.73
2018-03-21T18:53:53.418Z,17.17
2018-03-21T18:56:20.994Z,16.50
2018-03-21T18:58:48.569Z,17.93
2018-03-21T19:01:16.146Z,17.40
2018-03-21T19:03:43.734Z,16.73
2018-03-21T19:06:11.286Z,18.03
2018-03-21T19:08:38.896Z,17.60
2018-03-21T19:11:06.471Z,17.90
2018-03-21T19:13:34.036Z,20.33
2018-03-21T19:16:01.652Z,20.77
2018-03-21T19:18:29.207Z,18.57
2018-03-21T19:20:56.788Z,17.13
2018-03-21T19:23:24.503Z,18.27
2018-03-21T19:25:52.096Z,18.70
2018-03-21T19:28:19.659Z,17.10
2018-03-21T19:30:47.230Z,16.83
2018-03-21T19:33:14.785Z,16.50
2018-03-21T19:35:42.355Z,17.33
2018-03-21T19:38:09.972Z,17.57
2018-03-21T19:40:37.525Z,16.50
2018-03-21T19:43:05.086Z,19.27
2018-03-21T19:45:32.809Z,18.13
2018-03-21T19:48:00.421Z,17.33
2018-03-21T19:50:27.996Z,18.07
2018-03-21T19:52:55.603Z,19.00
2018-03-21T19:55:23.171Z,18.53
2018-03-21T19:57:50.723Z,18.70
2018-03-21T20:00:18.326Z,17.10
2018-03-21T20:02:45.917Z,18.80
2018-03-21T20:05:13.468Z,17.27
2018-03-21T20:07:41.173Z,16.30
2018-03-21T20:10:08.741Z,17.57
2018-03-21T20:12:36.303Z,18.43
2018-03-21T20:15:03.972Z,17.20
2018-03-21T20:17:31.549Z,18.63
2018-03-21T20:19:59.104Z,18.57
2018-03-21T20:22:26.800Z,17.50
2018-03-21T20:24:54.388Z,18.37
2018-03-21T20:27:21.974Z,18.97
2018-03-21T20:29:49.769Z,19.43
2018-03-21T20:32:17.356Z,19.53
2018-03-21T20:34:44.913Z,20.80
2018-03-21T20:37:12.574Z,19.20
2018-03-21T20:39:40.133Z,19.00
2018-03-21T20:42:07.722Z,18.33
2018-03-21T20:44:35.335Z,17.17
2018-03-21T20:47:02.920Z,18.43
2018-03-21T20:49:30.486Z,19.30
2018-03-21T20:51:58.220Z,19.67
2018-03-21T20:54:25.802Z,19.07
2018-03-21T20:56:53.352Z,30.03
2018-03-21T20:59:21.076Z,47.87
2018-03-21T21:01:48.648Z,134.83
2018-03-21T21:04:16.231Z,174.30
2018-03-21T21:06:43.893Z,79.97
2018-03-21T21:09:11.455Z,61.00
2018-03-21T21:11:39.025Z,78.50
2018-03-21T21:14:06.628Z,116.53
2018-03-21T21:16:34.208Z,66.20
2018-03-21T21:19:01.768Z,44.87
2018-03-21T21:21:29.502Z,36.97
2018-03-21T21:23:57.066Z,56.10
2018-03-21T21:26:24.605Z,36.13
2018-03-21T21:28:52.161Z,44.30
2018-03-21T21:31:19.744Z,21.77
2018-03-21T21:33:50.591Z,22.87
2018-03-21T21:36:18.150Z,53.47
2018-03-21T21:38:45.728Z,43.50
2018-03-21T21:41:13.328Z,25.23
2018-03-21T21:43:40.894Z,18.47
2018-03-21T21:46:08.482Z,25.33
2018-03-21T21:48:36.193Z,23.30
2018-03-21T21:51:03.767Z,30.33
2018-03-21T21:53:31.348Z,25.80
2018-03-21T21:55:58.960Z,59.30
2018-03-21T21:58:26.523Z,39.23
2018-03-21T22:00:54.089Z,48.70
2018-03-21T22:03:21.691Z,36.07
2018-03-21T22:05:49.249Z,25.47
2018-03-21T22:08:16.825Z,34.67
2018-03-21T22:10:44.414Z,26.43
2018-03-21T22:13:11.972Z,22.47
2018-03-21T22:15:39.525Z,31.77
2018-03-21T22:18:07.111Z,32.23
2018-03-21T22:20:34.675Z,27.73
2018-03-21T22:23:02.229Z,23.73
2018-03-21T22:25:35.875Z,21.07
2018-03-21T22:28:03.447Z,19.83
2018-03-21T22:30:31.014Z,20.27
2018-03-21T22:35:51.440Z,24.33
2018-03-21T22:38:18.996Z,20.73
2018-03-21T22:40:48.405Z,22.53
2018-03-21T22:43:16.004Z,20.60
2018-03-21T22:45:43.554Z,20.70
2018-03-21T22:48:11.103Z,21.20
2018-03-21T22:50:38.979Z,17.70
2018-03-21T22:53:06.549Z,17.03
2018-03-21T22:55:34.123Z,18.47
2018-03-21T22:58:01.706Z,17.57
2018-03-21T23:00:29.270Z,17.63
2018-03-21T23:02:56.841Z,18.10
2018-03-21T23:05:24.432Z,16.73
2018-03-21T23:07:52.013Z,18.10
2018-03-21T23:10:19.569Z,17.60
2018-03-21T23:12:47.154Z,17.97
2018-03-21T23:15:14.707Z,17.00
2018-03-21T23:17:42.263Z,19.13
2018-03-21T23:20:09.854Z,16.97
2018-03-21T23:22:37.404Z,17.53
2018-03-21T23:25:04.949Z,18.83
2018-03-21T23:27:32.550Z,18.70
2018-03-21T23:30:00.093Z,17.77
2018-03-21T23:32:27.696Z,19.27
2018-03-21T23:34:55.250Z,18.40
2018-03-21T23:37:22.814Z,18.10
2018-03-21T23:39:50.554Z,19.37
2018-03-21T23:42:18.109Z,19.33
2018-03-21T23:44:45.670Z,19.23
2018-03-21T23:50:06.084Z,20.33
2018-03-21T23:52:33.641Z,18.87
2018-03-21T23:55:01.190Z,20.63
2018-03-21T23:57:28.876Z,19.17
2018-03-21T23:59:56.422Z,20.53
